Beaverton, Canada
Current Conditions -  °F | °C
As of 10:57 PM on Saturday 24 Jan 2015 (Local Time) from CYQA Reporting Station
Light Snow Light Snow  
Wind Chill: -14°   Ceiling: 1500
Heat Index: -6°   Visibility: 9mi
Dew Point: -8°   Wind: 17mph
Humidity: 86%   Direction: 330°NNW
Pressure: 29.47"   Gusts: 23mph
Location:  44.43°N, 79.15°W
Report Text: CYQA 250357Z AUTO 33015G20KT 9SM -SN OVC015 M06/M08 A2947 RMK SLP996
Loading
Personal Weather Stations






























Interactive Weather Map New forecast layout! Learn more

10-Day Weather Forecast

Advertisements
Track Severe Weather on mobile